createdAt,value
2022-09-18T04:00:37.178Z,0.00
2022-09-18T04:01:37.048Z,0.00
2022-09-18T04:02:37.105Z,0.00
2022-09-18T04:03:36.995Z,0.00
2022-09-18T04:04:36.986Z,0.00
2022-09-18T04:05:36.975Z,0.00
2022-09-18T04:06:36.966Z,0.00
2022-09-18T04:07:36.951Z,0.00
2022-09-18T04:08:36.946Z,0.00
2022-09-18T04:09:36.932Z,0.00
2022-09-18T04:10:36.935Z,0.00
2022-09-18T04:11:41.936Z,0.00
2022-09-18T04:12:36.891Z,0.00
2022-09-18T04:13:36.924Z,0.00
2022-09-18T04:14:36.870Z,0.00
2022-09-18T04:15:36.862Z,0.00
2022-09-18T04:16:37.014Z,0.00
2022-09-18T04:17:36.848Z,0.00
2022-09-18T04:18:36.833Z,0.00
2022-09-18T04:19:36.858Z,0.00
2022-09-18T04:20:36.807Z,0.00
2022-09-18T04:21:36.794Z,0.00
2022-09-18T04:22:41.810Z,0.00
2022-09-18T04:23:36.766Z,0.00
2022-09-18T04:24:36.754Z,0.00
2022-09-18T04:25:36.748Z,0.00
2022-09-18T04:26:36.741Z,0.00
2022-09-18T04:27:36.729Z,0.00
2022-09-18T04:28:36.746Z,0.00
2022-09-18T04:29:36.698Z,0.00
2022-09-18T04:30:36.684Z,0.00
2022-09-18T04:31:36.718Z,0.00
2022-09-18T04:32:36.779Z,0.00
2022-09-18T04:33:41.695Z,0.00
2022-09-18T04:34:36.641Z,0.00
2022-09-18T04:35:36.630Z,0.00
2022-09-18T04:36:36.617Z,0.00
2022-09-18T04:37:36.611Z,0.00
2022-09-18T04:38:36.617Z,0.00
2022-09-18T04:39:36.621Z,0.00
2022-09-18T04:40:36.630Z,0.00
2022-09-18T04:41:36.561Z,0.00
2022-09-18T04:42:36.549Z,0.00
2022-09-18T04:43:36.551Z,0.00
2022-09-18T04:44:41.549Z,0.00
2022-09-18T04:45:36.516Z,0.00
2022-09-18T04:46:36.589Z,0.00
2022-09-18T04:47:36.502Z,0.00
2022-09-18T04:48:36.596Z,0.00
2022-09-18T04:49:36.480Z,0.00
2022-09-18T04:50:36.463Z,0.00
2022-09-18T04:51:36.447Z,4.00
2022-09-18T04:52:36.453Z,0.00
2022-09-18T04:53:36.425Z,0.00
2022-09-18T04:54:36.413Z,4.00
2022-09-18T04:55:41.425Z,4.00
2022-09-18T04:56:36.393Z,4.00
2022-09-18T04:57:36.388Z,4.00
2022-09-18T04:58:36.366Z,4.00
2022-09-18T04:59:36.361Z,8.00
2022-09-18T05:00:36.392Z,12.00
2022-09-18T05:01:36.430Z,8.00
2022-09-18T05:02:36.350Z,16.00
2022-09-18T05:03:36.838Z,12.00
2022-09-18T05:04:36.318Z,16.00
2022-09-18T05:05:36.290Z,16.00
2022-09-18T05:06:41.330Z,20.00
2022-09-18T05:07:36.284Z,24.00
2022-09-18T05:08:36.253Z,28.00
2022-09-18T05:09:36.242Z,28.00
2022-09-18T05:10:36.233Z,28.00
2022-09-18T05:11:36.222Z,32.00
2022-09-18T05:12:36.220Z,32.00
2022-09-18T05:13:36.201Z,32.00
2022-09-18T05:14:36.185Z,32.00
2022-09-18T05:15:36.197Z,32.00
2022-09-18T05:16:36.249Z,32.00
2022-09-18T05:17:41.186Z,32.00
2022-09-18T05:18:36.167Z,28.00
2022-09-18T05:19:36.143Z,28.00
2022-09-18T05:20:36.231Z,28.00
2022-09-18T05:21:36.109Z,28.00
2022-09-18T05:22:36.108Z,28.00
2022-09-18T05:23:36.085Z,28.00
2022-09-18T05:24:36.074Z,28.00
2022-09-18T05:25:36.068Z,36.00
2022-09-18T05:26:36.048Z,36.00
2022-09-18T05:27:36.145Z,40.00
2022-09-18T05:28:41.053Z,44.00
2022-09-18T05:29:36.017Z,48.00
2022-09-18T05:30:36.008Z,52.00
2022-09-18T05:31:36.033Z,52.00
2022-09-18T05:32:35.999Z,52.00
2022-09-18T05:33:35.972Z,60.00
2022-09-18T05:34:35.969Z,68.00
2022-09-18T05:35:35.954Z,72.00
2022-09-18T05:36:36.052Z,68.00
2022-09-18T05:37:35.951Z,68.00
2022-09-18T05:38:35.929Z,68.00
2022-09-18T05:39:40.929Z,72.00
2022-09-18T05:40:35.947Z,72.00
2022-09-18T05:41:35.885Z,76.00
2022-09-18T05:42:35.867Z,84.00
2022-09-18T05:43:35.869Z,88.00
2022-09-18T05:44:35.846Z,96.00
2022-09-18T05:45:35.848Z,100.00
2022-09-18T05:46:35.884Z,104.00
2022-09-18T05:47:35.822Z,104.00
2022-09-18T05:48:35.863Z,124.00
2022-09-18T05:49:35.822Z,164.00
2022-09-18T05:50:40.801Z,156.00
2022-09-18T05:51:35.769Z,156.00
2022-09-18T05:52:35.870Z,144.00
2022-09-18T05:53:35.758Z,156.00
2022-09-18T05:54:35.736Z,192.00
2022-09-18T05:55:35.721Z,160.00
2022-09-18T05:56:35.711Z,168.00
2022-09-18T05:57:35.721Z,168.00
2022-09-18T05:58:35.700Z,200.00
2022-09-18T05:59:35.681Z,228.00
2022-09-18T06:00:35.667Z,264.00
2022-09-18T06:01:44.883Z,304.00
2022-09-18T06:02:36.706Z,284.00
2022-09-18T06:03:35.646Z,336.00
2022-09-18T06:04:35.630Z,320.00
2022-09-18T06:05:35.609Z,308.00
2022-09-18T06:06:35.603Z,308.00
2022-09-18T06:07:35.586Z,324.00
2022-09-18T06:08:35.705Z,304.00
2022-09-18T06:09:35.561Z,328.00
2022-09-18T06:10:35.567Z,384.00
2022-09-18T06:11:35.546Z,416.00
2022-09-18T06:12:40.552Z,436.00
2022-09-18T06:13:35.529Z,424.00
2022-09-18T06:14:35.516Z,424.00
2022-09-18T06:15:35.493Z,428.00
2022-09-18T06:16:39.941Z,424.00
2022-09-18T06:17:36.475Z,400.00
2022-09-18T06:18:35.472Z,412.00
2022-09-18T06:19:35.449Z,420.00
2022-09-18T06:20:35.446Z,444.00
2022-09-18T06:21:35.434Z,488.00
2022-09-18T06:22:35.426Z,532.00
2022-09-18T06:23:40.553Z,528.00
2022-09-18T06:24:35.400Z,504.00
2022-09-18T06:25:35.390Z,416.00
2022-09-18T06:26:35.371Z,400.00
2022-09-18T06:27:35.367Z,388.00
2022-09-18T06:28:35.363Z,396.00
2022-09-18T06:29:35.335Z,452.00
2022-09-18T06:30:35.326Z,700.00
2022-09-18T06:31:35.372Z,764.00
2022-09-18T06:32:35.302Z,972.00
2022-09-18T06:33:35.307Z,1012.00
2022-09-18T06:34:40.339Z,848.00
2022-09-18T06:35:35.266Z,768.00
2022-09-18T06:36:35.256Z,804.00
2022-09-18T06:37:35.255Z,960.00
2022-09-18T06:38:35.246Z,1200.00
2022-09-18T06:39:35.342Z,1308.00
2022-09-18T06:40:35.293Z,1400.00
2022-09-18T06:41:35.197Z,1432.00
2022-09-18T06:42:35.215Z,1580.00
2022-09-18T06:43:35.186Z,1716.00
2022-09-18T06:44:35.235Z,1904.00
2022-09-18T06:45:40.176Z,2012.00
2022-09-18T06:46:35.190Z,1812.00
2022-09-18T06:47:35.130Z,1684.00
2022-09-18T06:48:35.138Z,1680.00
2022-09-18T06:49:35.111Z,1796.00
2022-09-18T06:50:35.097Z,1892.00
2022-09-18T06:51:35.103Z,1920.00
2022-09-18T06:52:35.078Z,1908.00
2022-09-18T06:53:35.066Z,1872.00
2022-09-18T06:54:35.072Z,1836.00
2022-09-18T06:55:35.157Z,1904.00
2022-09-18T06:56:40.051Z,1996.00
2022-09-18T06:57:35.020Z,1912.00
2022-09-18T06:58:35.016Z,1876.00
2022-09-18T06:59:35.007Z,1932.00
2022-09-18T07:00:35.095Z,1832.00
2022-09-18T07:01:35.153Z,1840.00
2022-09-18T07:02:35.024Z,1956.00
2022-09-18T07:03:34.965Z,1928.00
2022-09-18T07:04:34.948Z,1852.00
2022-09-18T07:05:34.925Z,1888.00
2022-09-18T07:06:34.931Z,1788.00
2022-09-18T07:07:39.924Z,1888.00
2022-09-18T07:08:34.891Z,1992.00
2022-09-18T07:09:34.891Z,2180.00
2022-09-18T07:10:34.879Z,2380.00
2022-09-18T07:11:34.982Z,2328.00
2022-09-18T07:12:34.861Z,2396.00
2022-09-18T07:13:34.837Z,2248.00
2022-09-18T07:14:34.846Z,2472.00
2022-09-18T07:15:34.820Z,2204.00
2022-09-18T07:16:34.878Z,2080.00
2022-09-18T07:17:34.792Z,1996.00
2022-09-18T07:18:39.803Z,1960.00
2022-09-18T07:19:34.777Z,1964.00
2022-09-18T07:20:34.756Z,2032.00
2022-09-18T07:21:34.758Z,1948.00
2022-09-18T07:22:34.737Z,1904.00
2022-09-18T07:23:34.731Z,1840.00
2022-09-18T07:24:34.729Z,1740.00
2022-09-18T07:25:34.709Z,1560.00
2022-09-18T07:26:34.694Z,1488.00
2022-09-18T07:27:34.803Z,1644.00
2022-09-18T07:28:34.667Z,1828.00
2022-09-18T07:29:39.695Z,1704.00
2022-09-18T07:30:34.676Z,1632.00
2022-09-18T07:31:34.709Z,1572.00
2022-09-18T07:32:34.639Z,1684.00
2022-09-18T07:33:34.614Z,1952.00
2022-09-18T07:34:34.644Z,1864.00
2022-09-18T07:35:34.626Z,1744.00
2022-09-18T07:36:34.581Z,1592.00
2022-09-18T07:37:34.599Z,1424.00
2022-09-18T07:38:34.557Z,1524.00
2022-09-18T07:39:34.824Z,1848.00
2022-09-18T07:40:39.622Z,2012.00
2022-09-18T07:41:34.518Z,2104.00
2022-09-18T07:42:34.523Z,2200.00
2022-09-18T07:43:34.629Z,2064.00
2022-09-18T07:44:34.498Z,2028.00
2022-09-18T07:45:34.476Z,2208.00
2022-09-18T07:46:34.548Z,2364.00
2022-09-18T07:47:34.456Z,2348.00
2022-09-18T07:48:34.438Z,2684.00
2022-09-18T07:49:34.446Z,2632.00
2022-09-18T07:50:34.430Z,2716.00
2022-09-18T07:51:39.428Z,2740.00
2022-09-18T07:52:34.427Z,2744.00
2022-09-18T07:53:34.386Z,2616.00
2022-09-18T07:54:34.392Z,2920.00
2022-09-18T07:55:34.359Z,2792.00
2022-09-18T07:56:34.347Z,2808.00
2022-09-18T07:57:34.359Z,2724.00
2022-09-18T07:58:34.324Z,2808.00
2022-09-18T07:59:34.436Z,2728.00
2022-09-18T08:00:34.316Z,2992.00
2022-09-18T08:01:34.373Z,2952.00
2022-09-18T08:02:39.436Z,3116.00
2022-09-18T08:03:36.876Z,3348.00
2022-09-18T08:04:35.274Z,3336.00
2022-09-18T08:05:34.260Z,3424.00
2022-09-18T08:06:34.236Z,3380.00
2022-09-18T08:07:34.223Z,3592.00
2022-09-18T08:08:34.243Z,3464.00
2022-09-18T08:09:34.233Z,3480.00
2022-09-18T08:10:34.191Z,3528.00
2022-09-18T08:11:34.178Z,3372.00
2022-09-18T08:12:34.168Z,3080.00
2022-09-18T08:13:39.177Z,2756.00
2022-09-18T08:14:34.161Z,2772.00
2022-09-18T08:15:34.274Z,2856.00
2022-09-18T08:16:34.182Z,2784.00
2022-09-18T08:17:34.106Z,2848.00
2022-09-18T08:18:34.149Z,2912.00
2022-09-18T08:19:34.104Z,2992.00
2022-09-18T08:20:34.088Z,3048.00
2022-09-18T08:21:34.062Z,3024.00
2022-09-18T08:22:34.056Z,3268.00
2022-09-18T08:23:34.062Z,3320.00
2022-09-18T08:24:39.078Z,3092.00
2022-09-18T08:25:34.027Z,3184.00
2022-09-18T08:26:34.012Z,3380.00
2022-09-18T08:27:33.995Z,3748.00
2022-09-18T08:28:33.991Z,3740.00
2022-09-18T08:29:33.984Z,3788.00
2022-09-18T08:30:34.044Z,3932.00
2022-09-18T08:31:34.122Z,3680.00
2022-09-18T08:32:33.941Z,3680.00
2022-09-18T08:33:33.928Z,3876.00
2022-09-18T08:34:33.943Z,3412.00
2022-09-18T08:35:38.941Z,3336.00
2022-09-18T08:36:33.894Z,3632.00
2022-09-18T08:37:33.886Z,3648.00
2022-09-18T08:38:33.879Z,3412.00
2022-09-18T08:39:33.874Z,3416.00
2022-09-18T08:40:33.923Z,3400.00
2022-09-18T08:41:33.835Z,3564.00
2022-09-18T08:42:33.850Z,3756.00
2022-09-18T08:43:33.868Z,3852.00
2022-09-18T08:44:33.816Z,3968.00
2022-09-18T08:45:33.791Z,3808.00
2022-09-18T08:46:39.033Z,4472.00
2022-09-18T08:47:33.768Z,4400.00
2022-09-18T08:48:33.772Z,3920.00
2022-09-18T08:49:33.763Z,4080.00
2022-09-18T08:50:38.203Z,3892.00
2022-09-18T08:51:33.724Z,3692.00
2022-09-18T08:52:33.718Z,3480.00
2022-09-18T08:53:33.723Z,3496.00
2022-09-18T08:54:33.692Z,3396.00
2022-09-18T08:55:33.703Z,3288.00
2022-09-18T08:56:33.666Z,3324.00
2022-09-18T08:57:38.677Z,3016.00
2022-09-18T08:58:33.667Z,2932.00
2022-09-18T08:59:33.675Z,2860.00
2022-09-18T09:00:33.726Z,2796.00
2022-09-18T09:01:33.614Z,2752.00
2022-09-18T09:02:33.767Z,2932.00
2022-09-18T09:03:33.594Z,2728.00
2022-09-18T09:04:33.581Z,3028.00
2022-09-18T09:05:33.580Z,3144.00
2022-09-18T09:06:33.563Z,3132.00
2022-09-18T09:07:33.572Z,3932.00
2022-09-18T09:08:38.560Z,3416.00
2022-09-18T09:09:33.521Z,3536.00
2022-09-18T09:10:33.521Z,3832.00
2022-09-18T09:11:33.499Z,3784.00
2022-09-18T09:12:33.492Z,4152.00
2022-09-18T09:13:33.515Z,4104.00
2022-09-18T09:14:55.423Z,4180.00
2022-09-18T09:15:34.464Z,4264.00
2022-09-18T09:16:33.553Z,4428.00
2022-09-18T09:17:33.443Z,4144.00
2022-09-18T09:18:33.571Z,3896.00
2022-09-18T09:19:38.427Z,3948.00
2022-09-18T09:20:33.411Z,4052.00
2022-09-18T09:21:33.458Z,4324.00
2022-09-18T09:22:33.371Z,4184.00
2022-09-18T09:23:33.364Z,4204.00
2022-09-18T09:24:33.351Z,4216.00
2022-09-18T09:25:33.387Z,4304.00
2022-09-18T09:26:33.330Z,4636.00
2022-09-18T09:27:33.357Z,4480.00
2022-09-18T09:28:33.302Z,4488.00
2022-09-18T09:29:33.296Z,4400.00
2022-09-18T09:30:38.311Z,4292.00
2022-09-18T09:31:33.785Z,4376.00
2022-09-18T09:32:33.258Z,4288.00
2022-09-18T09:33:33.406Z,4084.00
2022-09-18T09:34:33.346Z,4036.00
2022-09-18T09:35:33.238Z,4040.00
2022-09-18T09:36:33.217Z,3972.00
2022-09-18T09:37:33.974Z,3960.00
2022-09-18T09:38:33.194Z,4000.00
2022-09-18T09:39:33.370Z,4188.00
2022-09-18T09:40:33.256Z,4212.00
2022-09-18T09:41:38.195Z,4104.00
2022-09-18T09:42:33.142Z,4412.00
2022-09-18T09:43:33.127Z,4492.00
2022-09-18T09:44:33.121Z,4476.00
2022-09-18T09:45:33.106Z,4612.00
2022-09-18T09:46:33.150Z,4708.00
2022-09-18T09:47:33.081Z,4076.00
2022-09-18T09:48:33.070Z,3724.00
2022-09-18T09:49:33.067Z,3500.00
2022-09-18T09:50:33.166Z,3972.00
2022-09-18T09:51:33.044Z,4136.00
2022-09-18T09:52:38.044Z,4488.00
2022-09-18T09:53:33.017Z,4672.00
2022-09-18T09:54:33.022Z,4940.00
2022-09-18T09:55:33.006Z,5352.00
2022-09-18T09:56:33.002Z,4844.00
2022-09-18T09:57:32.966Z,4488.00
2022-09-18T09:58:32.990Z,4392.00
2022-09-18T09:59:32.943Z,4720.00
2022-09-18T10:00:32.977Z,4236.00
2022-09-18T10:01:33.004Z,4360.00
2022-09-18T10:02:32.909Z,4288.00
2022-09-18T10:03:37.924Z,4544.00
2022-09-18T10:04:32.891Z,4236.00
2022-09-18T10:05:32.874Z,4388.00
2022-09-18T10:06:32.996Z,3844.00
2022-09-18T10:07:32.873Z,3368.00
2022-09-18T10:08:32.884Z,2956.00
2022-09-18T10:09:32.833Z,2592.00
2022-09-18T10:10:32.815Z,2216.00
2022-09-18T10:11:32.824Z,2188.00
2022-09-18T10:12:32.795Z,2280.00
2022-09-18T10:13:32.783Z,2880.00
2022-09-18T10:14:37.794Z,3080.00
2022-09-18T10:15:32.766Z,3476.00
2022-09-18T10:16:32.842Z,3428.00
2022-09-18T10:17:32.806Z,3848.00
2022-09-18T10:18:32.727Z,4724.00
2022-09-18T10:19:32.746Z,4776.00
2022-09-18T10:20:32.707Z,4348.00
2022-09-18T10:21:32.704Z,5000.00
2022-09-18T10:22:32.808Z,4740.00
2022-09-18T10:23:34.024Z,4940.00
2022-09-18T10:24:32.656Z,5344.00
2022-09-18T10:25:37.669Z,6616.00
2022-09-18T10:26:32.643Z,6496.00
2022-09-18T10:27:32.631Z,6056.00
2022-09-18T10:28:32.621Z,5904.00
2022-09-18T10:29:35.741Z,5436.00
2022-09-18T10:30:32.588Z,4152.00
2022-09-18T10:31:32.675Z,3592.00
2022-09-18T10:32:32.590Z,3016.00
2022-09-18T10:33:32.563Z,2604.00
2022-09-18T10:34:32.544Z,2556.00
2022-09-18T10:35:32.532Z,2432.00
2022-09-18T10:36:37.550Z,2416.00
2022-09-18T10:37:32.511Z,2520.00
2022-09-18T10:38:32.624Z,2608.00
2022-09-18T10:39:32.493Z,2172.00
2022-09-18T10:40:32.574Z,2224.00
2022-09-18T10:41:32.478Z,2248.00
2022-09-18T10:42:32.457Z,2240.00
2022-09-18T10:43:32.442Z,2792.00
2022-09-18T10:44:32.500Z,4156.00
2022-09-18T10:45:32.434Z,4724.00
2022-09-18T10:46:32.429Z,4236.00
2022-09-18T10:47:37.428Z,5304.00
2022-09-18T10:48:32.385Z,4920.00
2022-09-18T10:49:32.379Z,4372.00
2022-09-18T10:50:34.421Z,4784.00
2022-09-18T10:51:32.352Z,5516.00
2022-09-18T10:52:32.353Z,6296.00
2022-09-18T10:53:32.352Z,6644.00
2022-09-18T10:54:32.434Z,7800.00
2022-09-18T10:55:32.310Z,7800.00
2022-09-18T10:56:32.294Z,8172.00
2022-09-18T10:57:32.294Z,8056.00
2022-09-18T10:58:37.294Z,7180.00
2022-09-18T10:59:32.275Z,7604.00
2022-09-18T11:00:32.298Z,7872.00
2022-09-18T11:01:32.373Z,8044.00
2022-09-18T11:02:32.305Z,5636.00
2022-09-18T11:03:32.221Z,6868.00
2022-09-18T11:04:32.206Z,6652.00
2022-09-18T11:05:32.194Z,7288.00
2022-09-18T11:06:32.201Z,4732.00
2022-09-18T11:07:32.171Z,4752.00
2022-09-18T11:08:32.157Z,4152.00
2022-09-18T11:09:37.291Z,5076.00
2022-09-18T11:10:32.139Z,4096.00
2022-09-18T11:11:32.136Z,3748.00
2022-09-18T11:12:32.126Z,3176.00
2022-09-18T11:13:32.101Z,3280.00
2022-09-18T11:14:32.090Z,5064.00
2022-09-18T11:15:32.081Z,6456.00
2022-09-18T11:16:32.159Z,6280.00
2022-09-18T11:17:32.076Z,3940.00
2022-09-18T11:18:32.074Z,3776.00
2022-09-18T11:19:32.033Z,4668.00
2022-09-18T11:20:37.051Z,4140.00
2022-09-18T11:21:32.032Z,3908.00
2022-09-18T11:22:32.020Z,3168.00
2022-09-18T11:23:31.994Z,3216.00
2022-09-18T11:24:31.975Z,3152.00
2022-09-18T11:25:32.082Z,3448.00
2022-09-18T11:26:31.973Z,3332.00
2022-09-18T11:27:31.945Z,2668.00
2022-09-18T11:28:31.933Z,2732.00
2022-09-18T11:29:31.921Z,2640.00
2022-09-18T11:30:31.907Z,3064.00
2022-09-18T11:31:37.009Z,2600.00
2022-09-18T11:32:31.890Z,1868.00
2022-09-18T11:33:31.880Z,1632.00
2022-09-18T11:34:31.870Z,1808.00
2022-09-18T11:35:31.857Z,2256.00
2022-09-18T11:36:31.849Z,2244.00
2022-09-18T11:37:31.832Z,1428.00
2022-09-18T11:38:31.820Z,1336.00
2022-09-18T11:39:31.810Z,1040.00
2022-09-18T11:40:31.870Z,1112.00
2022-09-18T11:41:31.922Z,1224.00
2022-09-18T11:42:36.793Z,888.00
2022-09-18T11:43:31.762Z,764.00
2022-09-18T11:44:31.785Z,792.00
2022-09-18T11:45:31.738Z,792.00
2022-09-18T11:46:31.769Z,868.00
2022-09-18T11:47:31.746Z,916.00
2022-09-18T11:48:31.705Z,740.00
2022-09-18T11:49:31.697Z,864.00
2022-09-18T11:50:31.681Z,696.00
2022-09-18T11:51:31.673Z,748.00
2022-09-18T11:52:31.671Z,780.00
2022-09-18T11:53:36.671Z,748.00
2022-09-18T11:54:31.634Z,664.00
2022-09-18T11:55:31.630Z,720.00
2022-09-18T11:56:31.614Z,596.00
2022-09-18T11:57:31.726Z,476.00
2022-09-18T11:58:31.598Z,552.00
2022-09-18T11:59:31.588Z,584.00
2022-09-18T12:00:31.575Z,544.00
2022-09-18T12:01:31.573Z,752.00
2022-09-18T12:02:31.791Z,896.00
2022-09-18T12:03:31.666Z,788.00
2022-09-18T12:04:36.553Z,696.00
2022-09-18T12:05:31.516Z,864.00
2022-09-18T12:06:31.499Z,1080.00
2022-09-18T12:07:36.996Z,1028.00
2022-09-18T12:08:30.121Z,1268.00
2022-09-18T12:09:30.118Z,1576.00
2022-09-18T12:10:30.119Z,2300.00
2022-09-18T12:11:30.083Z,2904.00
2022-09-18T12:12:30.091Z,3288.00
2022-09-18T12:13:30.183Z,3268.00
2022-09-18T12:14:30.048Z,3764.00
2022-09-18T12:15:35.063Z,3664.00
2022-09-18T12:16:30.056Z,3436.00
2022-09-18T12:17:30.025Z,3204.00
2022-09-18T12:18:29.999Z,3628.00
2022-09-18T12:19:29.987Z,2768.00
2022-09-18T12:20:29.978Z,2600.00
2022-09-18T12:21:29.969Z,2388.00
2022-09-18T12:22:29.961Z,2484.00
2022-09-18T12:23:29.951Z,2660.00
2022-09-18T12:24:29.924Z,2776.00
2022-09-18T12:25:29.914Z,3124.00
2022-09-18T12:26:34.922Z,3376.00
2022-09-18T12:27:29.913Z,2784.00
2022-09-18T12:28:29.879Z,3076.00
2022-09-18T12:29:29.991Z,2656.00
2022-09-18T12:30:29.864Z,2616.00
2022-09-18T12:31:29.903Z,2256.00
2022-09-18T12:32:29.843Z,2656.00
2022-09-18T12:33:33.948Z,2616.00
2022-09-18T12:34:29.803Z,2112.00
2022-09-18T12:35:29.792Z,2204.00
2022-09-18T12:36:29.778Z,2596.00
2022-09-18T12:37:34.803Z,2544.00
2022-09-18T12:38:29.756Z,2488.00
2022-09-18T12:39:30.416Z,2640.00
2022-09-18T12:40:30.448Z,2640.00
2022-09-18T12:41:30.393Z,2760.00
2022-09-18T12:42:30.388Z,2700.00
2022-09-18T12:43:30.368Z,2636.00
2022-09-18T12:44:30.360Z,2644.00
2022-09-18T12:45:30.573Z,2636.00
2022-09-18T12:46:30.360Z,2908.00
2022-09-18T12:47:30.375Z,2468.00
2022-09-18T12:48:35.329Z,2504.00
2022-09-18T12:49:30.307Z,2520.00
2022-09-18T12:50:30.282Z,3148.00
2022-09-18T12:51:30.272Z,3476.00
2022-09-18T12:52:30.271Z,3568.00
2022-09-18T12:53:30.248Z,2764.00
2022-09-18T12:54:30.236Z,3120.00
2022-09-18T12:55:30.251Z,2656.00
2022-09-18T12:56:30.214Z,1928.00
2022-09-18T12:57:30.210Z,1528.00
2022-09-18T12:58:30.185Z,1504.00
2022-09-18T12:59:35.195Z,1232.00
2022-09-18T13:00:30.225Z,1048.00
2022-09-18T13:01:30.268Z,1216.00
2022-09-18T13:02:30.216Z,1052.00
2022-09-18T13:03:30.219Z,1248.00
2022-09-18T13:04:30.113Z,1408.00
2022-09-18T13:05:30.100Z,1400.00
2022-09-18T13:06:30.090Z,1468.00
2022-09-18T13:07:30.167Z,1116.00
2022-09-18T13:08:30.079Z,1248.00
2022-09-18T13:09:30.053Z,1148.00
2022-09-18T13:10:35.067Z,1012.00
2022-09-18T13:11:30.038Z,1296.00
2022-09-18T13:12:30.029Z,1204.00
2022-09-18T13:13:30.021Z,1472.00
2022-09-18T13:14:30.004Z,1632.00
2022-09-18T13:15:29.982Z,1728.00
2022-09-18T13:16:30.794Z,1852.00
2022-09-18T13:17:30.803Z,2176.00
2022-09-18T13:18:30.690Z,2412.00
2022-09-18T13:19:30.663Z,1888.00
2022-09-18T13:20:30.655Z,1688.00
2022-09-18T13:21:35.662Z,1976.00
2022-09-18T13:22:30.642Z,1712.00
2022-09-18T13:23:30.647Z,1436.00
2022-09-18T13:24:30.602Z,1548.00
2022-09-18T13:25:30.606Z,1568.00
2022-09-18T13:26:30.612Z,1256.00
2022-09-18T13:27:30.577Z,1256.00
2022-09-18T13:28:30.581Z,1268.00
2022-09-18T13:29:30.585Z,904.00
2022-09-18T13:30:30.546Z,904.00
2022-09-18T13:31:30.605Z,1052.00
2022-09-18T13:32:37.807Z,1072.00
2022-09-18T13:33:30.502Z,1092.00
2022-09-18T13:34:30.480Z,920.00
2022-09-18T13:35:30.498Z,1268.00
2022-09-18T13:36:30.458Z,1164.00
2022-09-18T13:37:30.447Z,1212.00
2022-09-18T13:38:30.541Z,1264.00
2022-09-18T13:39:40.917Z,1508.00
2022-09-18T13:40:31.460Z,1532.00
2022-09-18T13:41:30.399Z,1248.00
2022-09-18T13:42:30.401Z,1208.00
2022-09-18T13:43:35.409Z,1076.00
2022-09-18T13:44:30.377Z,1236.00
2022-09-18T13:45:30.355Z,1312.00
2022-09-18T13:46:30.399Z,1188.00
2022-09-18T13:47:30.328Z,1420.00
2022-09-18T13:48:30.435Z,1580.00
2022-09-18T13:49:30.302Z,1448.00
2022-09-18T13:50:30.291Z,1056.00
2022-09-18T13:51:31.543Z,1036.00
2022-09-18T13:52:30.264Z,1468.00
2022-09-18T13:53:30.269Z,1448.00
2022-09-18T13:54:35.263Z,1684.00
2022-09-18T13:55:30.231Z,1772.00
2022-09-18T13:56:30.243Z,1952.00
2022-09-18T13:57:30.227Z,1828.00
2022-09-18T13:58:30.204Z,1688.00
2022-09-18T13:59:30.183Z,1488.00
2022-09-18T14:00:30.219Z,1572.00
2022-09-18T14:01:30.216Z,1516.00
2022-09-18T14:02:30.149Z,1512.00
2022-09-18T14:03:30.159Z,1368.00
2022-09-18T14:04:30.251Z,1140.00
2022-09-18T14:05:35.187Z,1108.00
2022-09-18T14:06:30.103Z,1364.00
2022-09-18T14:07:30.089Z,1484.00
2022-09-18T14:08:30.092Z,1676.00
2022-09-18T14:09:30.078Z,1836.00
2022-09-18T14:10:30.056Z,2008.00
2022-09-18T14:11:30.057Z,1716.00
2022-09-18T14:12:30.064Z,1680.00
2022-09-18T14:13:30.028Z,1704.00
2022-09-18T14:14:30.047Z,1552.00
2022-09-18T14:15:29.999Z,1684.00
2022-09-18T14:16:35.035Z,1600.00
2022-09-18T14:17:29.979Z,1488.00
2022-09-18T14:18:30.043Z,1664.00
2022-09-18T14:19:29.960Z,1408.00
2022-09-18T14:20:30.080Z,1504.00
2022-09-18T14:21:29.931Z,1336.00
2022-09-18T14:22:29.923Z,1216.00
2022-09-18T14:23:29.911Z,1176.00
2022-09-18T14:24:29.902Z,1072.00
2022-09-18T14:25:32.816Z,1000.00
2022-09-18T14:26:29.869Z,944.00
2022-09-18T14:27:34.882Z,944.00
2022-09-18T14:28:29.854Z,1124.00
2022-09-18T14:29:29.855Z,988.00
2022-09-18T14:30:29.821Z,956.00
2022-09-18T14:31:29.958Z,924.00
2022-09-18T14:32:29.799Z,964.00
2022-09-18T14:33:29.850Z,1016.00
2022-09-18T14:34:29.805Z,952.00
2022-09-18T14:35:29.791Z,988.00
2022-09-18T14:36:29.867Z,1128.00
2022-09-18T14:37:29.749Z,1356.00
2022-09-18T14:38:34.755Z,1360.00
2022-09-18T14:39:29.733Z,1268.00
2022-09-18T14:40:29.733Z,1128.00
2022-09-18T14:41:29.698Z,1100.00
2022-09-18T14:42:32.611Z,1100.00
2022-09-18T14:43:29.676Z,1204.00
2022-09-18T14:44:29.766Z,1224.00
2022-09-18T14:45:29.765Z,1156.00
2022-09-18T14:46:29.722Z,1188.00
2022-09-18T14:47:29.631Z,1252.00
2022-09-18T14:48:29.631Z,1220.00
2022-09-18T14:49:34.653Z,1080.00
2022-09-18T14:50:29.600Z,1012.00
2022-09-18T14:51:29.587Z,1032.00
2022-09-18T14:52:29.698Z,852.00
2022-09-18T14:53:29.567Z,716.00
2022-09-18T14:54:29.568Z,696.00
2022-09-18T14:55:29.590Z,572.00
2022-09-18T14:56:29.533Z,604.00
2022-09-18T14:57:29.519Z,612.00
2022-09-18T14:58:29.508Z,732.00
2022-09-18T14:59:29.526Z,848.00
2022-09-18T15:00:34.609Z,816.00
2022-09-18T15:01:29.490Z,808.00
2022-09-18T15:02:29.462Z,844.00
2022-09-18T15:03:29.450Z,764.00
2022-09-18T15:04:29.468Z,788.00
2022-09-18T15:05:29.444Z,696.00
2022-09-18T15:06:29.418Z,720.00
2022-09-18T15:07:29.413Z,668.00
2022-09-18T15:08:29.517Z,636.00
2022-09-18T15:09:29.388Z,656.00
2022-09-18T15:10:29.391Z,652.00
2022-09-18T15:11:47.028Z,644.00
2022-09-18T15:12:30.352Z,668.00
2022-09-18T15:13:29.344Z,720.00
2022-09-18T15:14:29.331Z,696.00
2022-09-18T15:15:29.329Z,656.00
2022-09-18T15:16:29.478Z,620.00
2022-09-18T15:17:29.296Z,576.00
2022-09-18T15:18:29.286Z,632.00
2022-09-18T15:19:29.277Z,612.00
2022-09-18T15:20:29.303Z,544.00
2022-09-18T15:21:33.046Z,488.00
2022-09-18T15:22:34.272Z,516.00
2022-09-18T15:23:29.235Z,520.00
2022-09-18T15:24:29.344Z,560.00
2022-09-18T15:25:29.231Z,564.00
2022-09-18T15:26:29.210Z,556.00
2022-09-18T15:27:29.194Z,536.00
2022-09-18T15:28:29.182Z,500.00
2022-09-18T15:29:29.168Z,508.00
2022-09-18T15:30:29.172Z,568.00
2022-09-18T15:31:29.207Z,684.00
2022-09-18T15:32:29.141Z,724.00
2022-09-18T15:33:34.161Z,616.00
2022-09-18T15:34:29.122Z,556.00
2022-09-18T15:35:29.134Z,564.00
2022-09-18T15:36:29.101Z,568.00
2022-09-18T15:37:29.112Z,532.00
2022-09-18T15:38:29.082Z,644.00
2022-09-18T15:39:29.080Z,620.00
2022-09-18T15:40:29.254Z,652.00
2022-09-18T15:41:29.047Z,600.00
2022-09-18T15:42:29.033Z,712.00
2022-09-18T15:43:29.039Z,720.00
2022-09-18T15:44:34.032Z,632.00
2022-09-18T15:45:29.063Z,604.00
2022-09-18T15:46:29.029Z,556.00
2022-09-18T15:47:28.975Z,556.00
2022-09-18T15:48:33.216Z,572.00
2022-09-18T15:49:28.967Z,572.00
2022-09-18T15:50:28.952Z,508.00
2022-09-18T15:51:28.945Z,420.00
2022-09-18T15:52:28.920Z,428.00
2022-09-18T15:53:28.912Z,456.00
2022-09-18T15:54:28.901Z,428.00
2022-09-18T15:55:34.039Z,396.00
2022-09-18T15:56:28.883Z,336.00
2022-09-18T15:57:28.915Z,336.00
2022-09-18T15:58:28.905Z,360.00
2022-09-18T15:59:28.838Z,304.00
2022-09-18T16:00:28.827Z,284.00
2022-09-18T16:01:28.825Z,324.00
2022-09-18T16:02:28.832Z,292.00
2022-09-18T16:03:28.790Z,296.00
2022-09-18T16:04:28.783Z,316.00
2022-09-18T16:05:28.773Z,312.00
2022-09-18T16:06:33.844Z,364.00
2022-09-18T16:07:28.746Z,336.00
2022-09-18T16:08:28.737Z,260.00
2022-09-18T16:09:32.908Z,252.00
2022-09-18T16:10:28.710Z,244.00
2022-09-18T16:11:28.827Z,236.00
2022-09-18T16:12:28.691Z,228.00
2022-09-18T16:13:28.675Z,240.00
2022-09-18T16:14:28.674Z,248.00
2022-09-18T16:15:28.656Z,244.00
2022-09-18T16:16:28.699Z,240.00
2022-09-18T16:17:36.614Z,236.00
2022-09-18T16:18:28.631Z,248.00
2022-09-18T16:19:28.604Z,248.00